sensor_id;sensor_type;location;lat;lon;timestamp;P1;durP1;ratioP1;P2;durP2;ratioP2
4353;SDS011;11018;51.258;6.806;2024-02-14T00:01:33;7.63;;;3.85;;
4353;SDS011;11018;51.258;6.806;2024-02-14T00:04:01;8.30;;;3.73;;
4353;SDS011;11018;51.258;6.806;2024-02-14T00:06:27;12.13;;;3.90;;
4353;SDS011;11018;51.258;6.806;2024-02-14T00:08:53;5.95;;;3.33;;
4353;SDS011;11018;51.258;6.806;2024-02-14T00:11:18;6.80;;;3.27;;
4353;SDS011;11018;51.258;6.806;2024-02-14T00:13:44;9.37;;;4.50;;
4353;SDS011;11018;51.258;6.806;2024-02-14T00:16:10;6.10;;;3.40;;
4353;SDS011;11018;51.258;6.806;2024-02-14T00:18:35;6.72;;;3.80;;
4353;SDS011;11018;51.258;6.806;2024-02-14T00:21:01;7.88;;;3.10;;
4353;SDS011;11018;51.258;6.806;2024-02-14T00:23:26;8.80;;;3.75;;
4353;SDS011;11018;51.258;6.806;2024-02-14T00:25:52;7.83;;;4.20;;
4353;SDS011;11018;51.258;6.806;2024-02-14T00:28:17;8.70;;;3.60;;
4353;SDS011;11018;51.258;6.806;2024-02-14T00:30:43;5.20;;;3.20;;
4353;SDS011;11018;51.258;6.806;2024-02-14T00:33:08;5.17;;;2.70;;
4353;SDS011;11018;51.258;6.806;2024-02-14T00:35:34;3.53;;;2.70;;
4353;SDS011;11018;51.258;6.806;2024-02-14T00:37:59;5.75;;;2.80;;
4353;SDS011;11018;51.258;6.806;2024-02-14T00:40:25;6.10;;;2.90;;
4353;SDS011;11018;51.258;6.806;2024-02-14T00:42:50;5.00;;;2.90;;
4353;SDS011;11018;51.258;6.806;2024-02-14T00:45:16;4.63;;;2.30;;
4353;SDS011;11018;51.258;6.806;2024-02-14T00:47:42;4.23;;;2.80;;
4353;SDS011;11018;51.258;6.806;2024-02-14T00:50:07;5.70;;;2.33;;
4353;SDS011;11018;51.258;6.806;2024-02-14T00:52:33;5.85;;;2.30;;
4353;SDS011;11018;51.258;6.806;2024-02-14T00:54:59;3.42;;;2.30;;
4353;SDS011;11018;51.258;6.806;2024-02-14T00:57:28;4.93;;;2.00;;
4353;SDS011;11018;51.258;6.806;2024-02-14T00:59:53;5.18;;;2.30;;
4353;SDS011;11018;51.258;6.806;2024-02-14T01:02:21;6.97;;;2.20;;
4353;SDS011;11018;51.258;6.806;2024-02-14T01:04:47;3.40;;;2.20;;
4353;SDS011;11018;51.258;6.806;2024-02-14T01:07:12;6.23;;;2.60;;
4353;SDS011;11018;51.258;6.806;2024-02-14T01:09:38;5.10;;;2.53;;
4353;SDS011;11018;51.258;6.806;2024-02-14T01:12:04;4.23;;;2.10;;
4353;SDS011;11018;51.258;6.806;2024-02-14T01:14:31;3.90;;;2.28;;
4353;SDS011;11018;51.258;6.806;2024-02-14T01:16:56;4.47;;;2.60;;
4353;SDS011;11018;51.258;6.806;2024-02-14T01:19:22;4.70;;;2.00;;
4353;SDS011;11018;51.258;6.806;2024-02-14T01:21:50;4.53;;;2.20;;
4353;SDS011;11018;51.258;6.806;2024-02-14T01:24:16;4.13;;;1.90;;
4353;SDS011;11018;51.258;6.806;2024-02-14T01:26:42;4.10;;;1.90;;
4353;SDS011;11018;51.258;6.806;2024-02-14T01:29:07;4.03;;;2.20;;
4353;SDS011;11018;51.258;6.806;2024-02-14T01:31:34;5.53;;;2.00;;
4353;SDS011;11018;51.258;6.806;2024-02-14T01:34:00;3.67;;;1.80;;
4353;SDS011;11018;51.258;6.806;2024-02-14T01:36:30;5.85;;;1.90;;
4353;SDS011;11018;51.258;6.806;2024-02-14T01:38:55;5.75;;;2.20;;
4353;SDS011;11018;51.258;6.806;2024-02-14T01:41:21;5.80;;;2.07;;
4353;SDS011;11018;51.258;6.806;2024-02-14T01:43:47;4.50;;;1.90;;
4353;SDS011;11018;51.258;6.806;2024-02-14T01:46:14;4.32;;;2.10;;
4353;SDS011;11018;51.258;6.806;2024-02-14T01:48:40;2.92;;;1.73;;
4353;SDS011;11018;51.258;6.806;2024-02-14T01:51:07;3.50;;;1.90;;
4353;SDS011;11018;51.258;6.806;2024-02-14T01:53:35;6.32;;;2.10;;
4353;SDS011;11018;51.258;6.806;2024-02-14T01:56:03;3.75;;;1.80;;
4353;SDS011;11018;51.258;6.806;2024-02-14T01:58:29;3.50;;;2.00;;
4353;SDS011;11018;51.258;6.806;2024-02-14T02:00:55;3.47;;;1.73;;
4353;SDS011;11018;51.258;6.806;2024-02-14T02:03:25;2.20;;;1.60;;
4353;SDS011;11018;51.258;6.806;2024-02-14T02:05:51;3.30;;;1.75;;
4353;SDS011;11018;51.258;6.806;2024-02-14T02:08:18;3.10;;;1.60;;
4353;SDS011;11018;51.258;6.806;2024-02-14T02:10:44;6.32;;;1.90;;
4353;SDS011;11018;51.258;6.806;2024-02-14T02:13:10;4.80;;;1.60;;
4353;SDS011;11018;51.258;6.806;2024-02-14T02:15:36;4.43;;;1.50;;
4353;SDS011;11018;51.258;6.806;2024-02-14T02:18:02;2.78;;;1.90;;
4353;SDS011;11018;51.258;6.806;2024-02-14T02:20:31;6.47;;;1.70;;
4353;SDS011;11018;51.258;6.806;2024-02-14T02:22:57;3.10;;;1.65;;
4353;SDS011;11018;51.258;6.806;2024-02-14T02:25:23;3.15;;;1.40;;
4353;SDS011;11018;51.258;6.806;2024-02-14T02:27:51;2.30;;;1.50;;
4353;SDS011;11018;51.258;6.806;2024-02-14T02:30:21;3.42;;;1.67;;
4353;SDS011;11018;51.258;6.806;2024-02-14T02:32:47;3.10;;;1.87;;
4353;SDS011;11018;51.258;6.806;2024-02-14T02:35:13;3.60;;;1.77;;
4353;SDS011;11018;51.258;6.806;2024-02-14T02:37:39;5.47;;;1.83;;
4353;SDS011;11018;51.258;6.806;2024-02-14T02:40:04;2.20;;;1.57;;
4353;SDS011;11018;51.258;6.806;2024-02-14T02:42:30;3.42;;;1.73;;
4353;SDS011;11018;51.258;6.806;2024-02-14T02:44:56;2.37;;;1.43;;
4353;SDS011;11018;51.258;6.806;2024-02-14T02:47:21;4.40;;;1.70;;
4353;SDS011;11018;51.258;6.806;2024-02-14T02:49:47;4.47;;;1.90;;
4353;SDS011;11018;51.258;6.806;2024-02-14T02:52:12;4.70;;;1.70;;
4353;SDS011;11018;51.258;6.806;2024-02-14T02:54:38;2.92;;;1.70;;
4353;SDS011;11018;51.258;6.806;2024-02-14T02:57:09;4.55;;;1.80;;
4353;SDS011;11018;51.258;6.806;2024-02-14T02:59:35;2.40;;;1.80;;
4353;SDS011;11018;51.258;6.806;2024-02-14T03:02:01;5.72;;;1.65;;
4353;SDS011;11018;51.258;6.806;2024-02-14T03:04:27;3.83;;;1.40;;
4353;SDS011;11018;51.258;6.806;2024-02-14T03:06:53;2.15;;;1.60;;
4353;SDS011;11018;51.258;6.806;2024-02-14T03:09:19;3.28;;;1.88;;
4353;SDS011;11018;51.258;6.806;2024-02-14T03:11:47;3.35;;;1.30;;
4353;SDS011;11018;51.258;6.806;2024-02-14T03:14:13;2.25;;;1.50;;
4353;SDS011;11018;51.258;6.806;2024-02-14T03:16:39;2.00;;;1.45;;
4353;SDS011;11018;51.258;6.806;2024-02-14T03:19:04;3.42;;;1.60;;
4353;SDS011;11018;51.258;6.806;2024-02-14T03:21:30;3.40;;;1.50;;
4353;SDS011;11018;51.258;6.806;2024-02-14T03:24:01;3.25;;;1.70;;
4353;SDS011;11018;51.258;6.806;2024-02-14T03:26:30;4.43;;;1.75;;
4353;SDS011;11018;51.258;6.806;2024-02-14T03:28:58;2.38;;;1.42;;
4353;SDS011;11018;51.258;6.806;2024-02-14T03:31:24;2.50;;;1.67;;
4353;SDS011;11018;51.258;6.806;2024-02-14T03:33:51;2.60;;;1.70;;
4353;SDS011;11018;51.258;6.806;2024-02-14T03:36:17;7.00;;;2.00;;
4353;SDS011;11018;51.258;6.806;2024-02-14T03:38:43;3.70;;;1.50;;
4353;SDS011;11018;51.258;6.806;2024-02-14T03:41:11;6.30;;;1.48;;
4353;SDS011;11018;51.258;6.806;2024-02-14T03:43:38;4.15;;;1.85;;
4353;SDS011;11018;51.258;6.806;2024-02-14T03:46:03;3.50;;;1.90;;
4353;SDS011;11018;51.258;6.806;2024-02-14T03:48:30;3.70;;;2.08;;
4353;SDS011;11018;51.258;6.806;2024-02-14T03:50:56;9.45;;;2.00;;
4353;SDS011;11018;51.258;6.806;2024-02-14T03:53:22;3.77;;;2.40;;
4353;SDS011;11018;51.258;6.806;2024-02-14T03:55:48;3.85;;;1.83;;
4353;SDS011;11018;51.258;6.806;2024-02-14T03:58:14;2.58;;;2.10;;
4353;SDS011;11018;51.258;6.806;2024-02-14T04:00:42;4.15;;;1.83;;
4353;SDS011;11018;51.258;6.806;2024-02-14T04:03:11;3.30;;;2.10;;
4353;SDS011;11018;51.258;6.806;2024-02-14T04:05:37;2.40;;;1.90;;
4353;SDS011;11018;51.258;6.806;2024-02-14T04:08:03;2.90;;;2.10;;
4353;SDS011;11018;51.258;6.806;2024-02-14T04:10:28;4.00;;;2.10;;
4353;SDS011;11018;51.258;6.806;2024-02-14T04:12:54;3.70;;;1.73;;
4353;SDS011;11018;51.258;6.806;2024-02-14T04:15:20;4.50;;;1.67;;
4353;SDS011;11018;51.258;6.806;2024-02-14T04:17:45;2.47;;;1.90;;
4353;SDS011;11018;51.258;6.806;2024-02-14T04:20:11;5.25;;;2.13;;
4353;SDS011;11018;51.258;6.806;2024-02-14T04:22:36;4.30;;;1.75;;
4353;SDS011;11018;51.258;6.806;2024-02-14T04:25:02;6.13;;;1.97;;
4353;SDS011;11018;51.258;6.806;2024-02-14T04:27:28;3.75;;;1.90;;
4353;SDS011;11018;51.258;6.806;2024-02-14T04:29:53;3.43;;;2.00;;
4353;SDS011;11018;51.258;6.806;2024-02-14T04:32:19;3.75;;;2.00;;
4353;SDS011;11018;51.258;6.806;2024-02-14T04:34:45;3.50;;;2.00;;
4353;SDS011;11018;51.258;6.806;2024-02-14T04:37:10;2.67;;;1.90;;
4353;SDS011;11018;51.258;6.806;2024-02-14T04:39:38;2.15;;;1.80;;
4353;SDS011;11018;51.258;6.806;2024-02-14T04:42:05;3.08;;;2.05;;
4353;SDS011;11018;51.258;6.806;2024-02-14T04:44:31;4.90;;;2.50;;
4353;SDS011;11018;51.258;6.806;2024-02-14T04:46:57;3.10;;;1.95;;
4353;SDS011;11018;51.258;6.806;2024-02-14T04:49:24;3.83;;;2.33;;
4353;SDS011;11018;51.258;6.806;2024-02-14T04:51:50;4.35;;;2.58;;
4353;SDS011;11018;51.258;6.806;2024-02-14T04:54:16;2.92;;;2.10;;
4353;SDS011;11018;51.258;6.806;2024-02-14T04:56:42;4.00;;;2.20;;
4353;SDS011;11018;51.258;6.806;2024-02-14T04:59:07;3.23;;;2.30;;
4353;SDS011;11018;51.258;6.806;2024-02-14T05:01:36;2.80;;;1.80;;
4353;SDS011;11018;51.258;6.806;2024-02-14T05:04:02;3.00;;;2.13;;
4353;SDS011;11018;51.258;6.806;2024-02-14T05:06:28;5.53;;;2.60;;
4353;SDS011;11018;51.258;6.806;2024-02-14T05:08:53;2.60;;;2.40;;
4353;SDS011;11018;51.258;6.806;2024-02-14T05:11:19;3.27;;;2.10;;
4353;SDS011;11018;51.258;6.806;2024-02-14T05:13:45;5.55;;;2.10;;
4353;SDS011;11018;51.258;6.806;2024-02-14T05:16:11;4.90;;;2.40;;
4353;SDS011;11018;51.258;6.806;2024-02-14T05:18:37;6.30;;;2.60;;
4353;SDS011;11018;51.258;6.806;2024-02-14T05:21:06;7.53;;;2.55;;
4353;SDS011;11018;51.258;6.806;2024-02-14T05:23:33;4.40;;;2.03;;
4353;SDS011;11018;51.258;6.806;2024-02-14T05:26:00;2.75;;;1.50;;
4353;SDS011;11018;51.258;6.806;2024-02-14T05:28:27;2.85;;;2.00;;
4353;SDS011;11018;51.258;6.806;2024-02-14T05:30:53;6.63;;;2.80;;
4353;SDS011;11018;51.258;6.806;2024-02-14T05:33:19;6.00;;;2.47;;
4353;SDS011;11018;51.258;6.806;2024-02-14T05:35:47;3.90;;;2.40;;
4353;SDS011;11018;51.258;6.806;2024-02-14T05:38:13;6.80;;;2.58;;
4353;SDS011;11018;51.258;6.806;2024-02-14T05:40:39;2.63;;;2.20;;
4353;SDS011;11018;51.258;6.806;2024-02-14T05:43:08;4.10;;;2.70;;
4353;SDS011;11018;51.258;6.806;2024-02-14T05:45:33;4.93;;;2.43;;
4353;SDS011;11018;51.258;6.806;2024-02-14T05:47:59;6.43;;;3.28;;
4353;SDS011;11018;51.258;6.806;2024-02-14T05:50:24;3.60;;;2.80;;
4353;SDS011;11018;51.258;6.806;2024-02-14T05:52:50;4.70;;;2.72;;
4353;SDS011;11018;51.258;6.806;2024-02-14T05:55:15;4.80;;;2.97;;
4353;SDS011;11018;51.258;6.806;2024-02-14T05:57:41;3.50;;;3.00;;
4353;SDS011;11018;51.258;6.806;2024-02-14T06:00:06;3.05;;;2.70;;
4353;SDS011;11018;51.258;6.806;2024-02-14T06:02:35;5.50;;;3.00;;
4353;SDS011;11018;51.258;6.806;2024-02-14T06:05:00;4.83;;;3.17;;
4353;SDS011;11018;51.258;6.806;2024-02-14T06:07:26;5.50;;;2.77;;
4353;SDS011;11018;51.258;6.806;2024-02-14T06:09:51;4.97;;;2.80;;
4353;SDS011;11018;51.258;6.806;2024-02-14T06:12:17;3.30;;;2.63;;
4353;SDS011;11018;51.258;6.806;2024-02-14T06:14:42;7.68;;;3.03;;
4353;SDS011;11018;51.258;6.806;2024-02-14T06:17:08;2.90;;;2.70;;
4353;SDS011;11018;51.258;6.806;2024-02-14T06:19:34;5.53;;;2.50;;
4353;SDS011;11018;51.258;6.806;2024-02-14T06:22:01;6.10;;;3.20;;
4353;SDS011;11018;51.258;6.806;2024-02-14T06:24:28;6.30;;;2.70;;
4353;SDS011;11018;51.258;6.806;2024-02-14T06:26:54;3.07;;;2.77;;
4353;SDS011;11018;51.258;6.806;2024-02-14T06:29:19;5.00;;;2.63;;
4353;SDS011;11018;51.258;6.806;2024-02-14T06:31:45;5.10;;;2.70;;
4353;SDS011;11018;51.258;6.806;2024-02-14T06:34:11;3.75;;;3.13;;
4353;SDS011;11018;51.258;6.806;2024-02-14T06:36:37;4.93;;;2.70;;
4353;SDS011;11018;51.258;6.806;2024-02-14T06:39:02;5.53;;;3.10;;
4353;SDS011;11018;51.258;6.806;2024-02-14T06:41:31;6.97;;;3.05;;
4353;SDS011;11018;51.258;6.806;2024-02-14T06:43:57;4.50;;;2.57;;
4353;SDS011;11018;51.258;6.806;2024-02-14T06:46:23;3.42;;;2.65;;
4353;SDS011;11018;51.258;6.806;2024-02-14T06:48:48;6.05;;;3.08;;
4353;SDS011;11018;51.258;6.806;2024-02-14T06:51:14;5.03;;;2.90;;
4353;SDS011;11018;51.258;6.806;2024-02-14T06:53:39;3.70;;;2.90;;
4353;SDS011;11018;51.258;6.806;2024-02-14T06:56:05;3.50;;;2.60;;
4353;SDS011;11018;51.258;6.806;2024-02-14T06:58:31;3.73;;;2.50;;
4353;SDS011;11018;51.258;6.806;2024-02-14T07:00:57;5.30;;;2.80;;
4353;SDS011;11018;51.258;6.806;2024-02-14T07:03:22;4.03;;;3.20;;
4353;SDS011;11018;51.258;6.806;2024-02-14T07:05:48;4.60;;;2.70;;
4353;SDS011;11018;51.258;6.806;2024-02-14T07:08:13;3.00;;;2.63;;
4353;SDS011;11018;51.258;6.806;2024-02-14T07:10:40;5.35;;;2.65;;
4353;SDS011;11018;51.258;6.806;2024-02-14T07:13:05;4.27;;;2.97;;
4353;SDS011;11018;51.258;6.806;2024-02-14T07:15:31;4.60;;;2.87;;
4353;SDS011;11018;51.258;6.806;2024-02-14T07:17:56;4.13;;;2.60;;
4353;SDS011;11018;51.258;6.806;2024-02-14T07:20:23;11.18;;;3.08;;
4353;SDS011;11018;51.258;6.806;2024-02-14T07:22:51;4.90;;;2.70;;
4353;SDS011;11018;51.258;6.806;2024-02-14T07:25:18;5.30;;;2.60;;
4353;SDS011;11018;51.258;6.806;2024-02-14T07:27:44;5.35;;;3.00;;
4353;SDS011;11018;51.258;6.806;2024-02-14T07:30:11;5.03;;;2.70;;
4353;SDS011;11018;51.258;6.806;2024-02-14T07:32:37;6.87;;;3.17;;
4353;SDS011;11018;51.258;6.806;2024-02-14T07:35:03;3.65;;;2.70;;
4353;SDS011;11018;51.258;6.806;2024-02-14T07:37:30;3.90;;;2.50;;
4353;SDS011;11018;51.258;6.806;2024-02-14T07:39:55;4.60;;;2.60;;
4353;SDS011;11018;51.258;6.806;2024-02-14T07:42:24;4.60;;;2.50;;
4353;SDS011;11018;51.258;6.806;2024-02-14T07:44:49;6.00;;;2.58;;
4353;SDS011;11018;51.258;6.806;2024-02-14T07:47:15;3.30;;;2.47;;
4353;SDS011;11018;51.258;6.806;2024-02-14T07:49:40;5.10;;;3.10;;
4353;SDS011;11018;51.258;6.806;2024-02-14T07:52:06;4.20;;;2.45;;
4353;SDS011;11018;51.258;6.806;2024-02-14T07:54:32;4.25;;;2.40;;
4353;SDS011;11018;51.258;6.806;2024-02-14T07:56:57;6.28;;;2.90;;
4353;SDS011;11018;51.258;6.806;2024-02-14T07:59:23;3.78;;;2.78;;
4353;SDS011;11018;51.258;6.806;2024-02-14T08:01:49;4.80;;;2.30;;
4353;SDS011;11018;51.258;6.806;2024-02-14T08:04:15;3.97;;;2.75;;
4353;SDS011;11018;51.258;6.806;2024-02-14T08:06:41;9.27;;;2.75;;
4353;SDS011;11018;51.258;6.806;2024-02-14T08:09:07;6.03;;;2.50;;
4353;SDS011;11018;51.258;6.806;2024-02-14T08:11:35;4.55;;;2.38;;
4353;SDS011;11018;51.258;6.806;2024-02-14T08:14:01;7.70;;;2.90;;
4353;SDS011;11018;51.258;6.806;2024-02-14T08:16:26;4.50;;;2.83;;
4353;SDS011;11018;51.258;6.806;2024-02-14T08:18:55;8.32;;;2.88;;
4353;SDS011;11018;51.258;6.806;2024-02-14T08:21:29;5.32;;;2.30;;
4353;SDS011;11018;51.258;6.806;2024-02-14T08:23:55;5.97;;;2.63;;
4353;SDS011;11018;51.258;6.806;2024-02-14T08:26:21;4.40;;;2.60;;
4353;SDS011;11018;51.258;6.806;2024-02-14T08:28:48;7.40;;;2.53;;
4353;SDS011;11018;51.258;6.806;2024-02-14T08:31:14;5.60;;;2.80;;
4353;SDS011;11018;51.258;6.806;2024-02-14T08:33:39;6.25;;;2.85;;
4353;SDS011;11018;51.258;6.806;2024-02-14T08:36:05;5.43;;;2.47;;
4353;SDS011;11018;51.258;6.806;2024-02-14T08:38:31;7.15;;;2.90;;
4353;SDS011;11018;51.258;6.806;2024-02-14T08:40:57;5.50;;;2.42;;
4353;SDS011;11018;51.258;6.806;2024-02-14T08:43:23;6.03;;;2.17;;
4353;SDS011;11018;51.258;6.806;2024-02-14T08:45:53;3.30;;;2.57;;
4353;SDS011;11018;51.258;6.806;2024-02-14T08:48:19;4.47;;;2.47;;
4353;SDS011;11018;51.258;6.806;2024-02-14T08:50:44;5.80;;;2.70;;
4353;SDS011;11018;51.258;6.806;2024-02-14T08:53:11;6.85;;;2.50;;
4353;SDS011;11018;51.258;6.806;2024-02-14T08:55:38;7.50;;;3.10;;
4353;SDS011;11018;51.258;6.806;2024-02-14T08:58:07;5.40;;;3.00;;
4353;SDS011;11018;51.258;6.806;2024-02-14T09:00:34;8.52;;;2.75;;
4353;SDS011;11018;51.258;6.806;2024-02-14T09:03:00;6.90;;;2.40;;
4353;SDS011;11018;51.258;6.806;2024-02-14T09:05:27;5.05;;;1.80;;
4353;SDS011;11018;51.258;6.806;2024-02-14T09:07:53;5.03;;;2.30;;
4353;SDS011;11018;51.258;6.806;2024-02-14T09:10:19;5.20;;;2.30;;
4353;SDS011;11018;51.258;6.806;2024-02-14T09:12:44;5.30;;;2.33;;
4353;SDS011;11018;51.258;6.806;2024-02-14T09:15:10;4.00;;;1.97;;
4353;SDS011;11018;51.258;6.806;2024-02-14T09:17:36;4.03;;;2.13;;
4353;SDS011;11018;51.258;6.806;2024-02-14T09:20:03;3.65;;;1.80;;
4353;SDS011;11018;51.258;6.806;2024-02-14T09:22:31;9.15;;;2.60;;
4353;SDS011;11018;51.258;6.806;2024-02-14T09:24:59;5.75;;;2.17;;
4353;SDS011;11018;51.258;6.806;2024-02-14T09:27:24;8.27;;;2.03;;
4353;SDS011;11018;51.258;6.806;2024-02-14T09:29:50;5.70;;;2.40;;
4353;SDS011;11018;51.258;6.806;2024-02-14T09:32:15;6.33;;;2.50;;
4353;SDS011;11018;51.258;6.806;2024-02-14T09:34:41;5.75;;;2.50;;
4353;SDS011;11018;51.258;6.806;2024-02-14T09:37:06;10.57;;;2.10;;
4353;SDS011;11018;51.258;6.806;2024-02-14T09:39:32;6.90;;;2.20;;
4353;SDS011;11018;51.258;6.806;2024-02-14T09:42:01;5.13;;;2.70;;
4353;SDS011;11018;51.258;6.806;2024-02-14T09:44:32;7.47;;;2.30;;
4353;SDS011;11018;51.258;6.806;2024-02-14T09:46:59;5.75;;;2.40;;
4353;SDS011;11018;51.258;6.806;2024-02-14T09:49:26;8.75;;;2.40;;
4353;SDS011;11018;51.258;6.806;2024-02-14T09:51:53;5.07;;;2.40;;
4353;SDS011;11018;51.258;6.806;2024-02-14T09:54:20;14.05;;;2.60;;
4353;SDS011;11018;51.258;6.806;2024-02-14T09:56:50;5.07;;;2.08;;
4353;SDS011;11018;51.258;6.806;2024-02-14T09:59:19;4.53;;;2.30;;
4353;SDS011;11018;51.258;6.806;2024-02-14T10:01:46;6.43;;;2.45;;
4353;SDS011;11018;51.258;6.806;2024-02-14T10:04:13;7.72;;;2.00;;
4353;SDS011;11018;51.258;6.806;2024-02-14T10:06:38;8.02;;;2.20;;
4353;SDS011;11018;51.258;6.806;2024-02-14T10:09:04;8.17;;;2.00;;
4353;SDS011;11018;51.258;6.806;2024-02-14T10:11:33;4.78;;;2.70;;
4353;SDS011;11018;51.258;6.806;2024-02-14T10:13:59;7.70;;;2.80;;
4353;SDS011;11018;51.258;6.806;2024-02-14T10:16:29;7.50;;;2.03;;
4353;SDS011;11018;51.258;6.806;2024-02-14T10:18:54;4.57;;;1.95;;
4353;SDS011;11018;51.258;6.806;2024-02-14T10:21:21;6.78;;;2.17;;
4353;SDS011;11018;51.258;6.806;2024-02-14T10:23:47;5.70;;;1.90;;
4353;SDS011;11018;51.258;6.806;2024-02-14T10:26:17;6.00;;;2.50;;
4353;SDS011;11018;51.258;6.806;2024-02-14T10:28:43;5.22;;;2.10;;
4353;SDS011;11018;51.258;6.806;2024-02-14T10:31:10;5.60;;;1.88;;
4353;SDS011;11018;51.258;6.806;2024-02-14T10:33:36;7.10;;;2.00;;
4353;SDS011;11018;51.258;6.806;2024-02-14T10:36:02;4.70;;;2.03;;
4353;SDS011;11018;51.258;6.806;2024-02-14T10:38:32;4.85;;;2.00;;
4353;SDS011;11018;51.258;6.806;2024-02-14T10:40:59;4.05;;;2.00;;
4353;SDS011;11018;51.258;6.806;2024-02-14T10:43:26;6.10;;;2.00;;
4353;SDS011;11018;51.258;6.806;2024-02-14T10:45:56;7.20;;;2.17;;
4353;SDS011;11018;51.258;6.806;2024-02-14T10:48:24;9.57;;;2.30;;
4353;SDS011;11018;51.258;6.806;2024-02-14T10:50:51;6.63;;;2.28;;
4353;SDS011;11018;51.258;6.806;2024-02-14T10:53:18;5.85;;;2.40;;
4353;SDS011;11018;51.258;6.806;2024-02-14T10:55:48;6.55;;;2.10;;
4353;SDS011;11018;51.258;6.806;2024-02-14T10:58:17;5.35;;;2.00;;
4353;SDS011;11018;51.258;6.806;2024-02-14T11:00:43;9.30;;;2.80;;
4353;SDS011;11018;51.258;6.806;2024-02-14T11:03:10;10.90;;;2.50;;
4353;SDS011;11018;51.258;6.806;2024-02-14T11:05:44;8.23;;;2.67;;
4353;SDS011;11018;51.258;6.806;2024-02-14T11:08:13;7.28;;;2.42;;
4353;SDS011;11018;51.258;6.806;2024-02-14T11:10:40;10.05;;;3.03;;
4353;SDS011;11018;51.258;6.806;2024-02-14T11:13:09;3.50;;;1.90;;
4353;SDS011;11018;51.258;6.806;2024-02-14T11:15:44;4.30;;;2.30;;
4353;SDS011;11018;51.258;6.806;2024-02-14T11:18:10;8.02;;;2.05;;
4353;SDS011;11018;51.258;6.806;2024-02-14T11:20:35;5.10;;;1.80;;
4353;SDS011;11018;51.258;6.806;2024-02-14T11:23:02;6.93;;;1.80;;
4353;SDS011;11018;51.258;6.806;2024-02-14T11:25:31;6.38;;;1.90;;
4353;SDS011;11018;51.258;6.806;2024-02-14T11:28:00;5.60;;;1.83;;
4353;SDS011;11018;51.258;6.806;2024-02-14T11:30:39;11.32;;;2.20;;
4353;SDS011;11018;51.258;6.806;2024-02-14T11:33:23;10.50;;;2.80;;
4353;SDS011;11018;51.258;6.806;2024-02-14T11:35:50;9.03;;;2.10;;
4353;SDS011;11018;51.258;6.806;2024-02-14T11:38:21;4.10;;;2.10;;
4353;SDS011;11018;51.258;6.806;2024-02-14T11:40:51;7.72;;;1.98;;
4353;SDS011;11018;51.258;6.806;2024-02-14T11:43:19;5.70;;;1.73;;
4353;SDS011;11018;51.258;6.806;2024-02-14T11:45:46;6.95;;;1.80;;
4353;SDS011;11018;51.258;6.806;2024-02-14T11:48:14;6.93;;;2.50;;
4353;SDS011;11018;51.258;6.806;2024-02-14T11:50:45;4.57;;;2.03;;
4353;SDS011;11018;51.258;6.806;2024-02-14T11:53:11;6.07;;;2.03;;
4353;SDS011;11018;51.258;6.806;2024-02-14T11:55:38;5.00;;;1.85;;
4353;SDS011;11018;51.258;6.806;2024-02-14T11:58:09;4.50;;;1.90;;
4353;SDS011;11018;51.258;6.806;2024-02-14T12:00:36;4.85;;;1.98;;
4353;SDS011;11018;51.258;6.806;2024-02-14T12:03:06;6.45;;;1.80;;
4353;SDS011;11018;51.258;6.806;2024-02-14T12:05:33;4.30;;;1.80;;
4353;SDS011;11018;51.258;6.806;2024-02-14T12:07:59;5.77;;;1.57;;
4353;SDS011;11018;51.258;6.806;2024-02-14T12:10:25;5.85;;;1.80;;
4353;SDS011;11018;51.258;6.806;2024-02-14T12:12:51;4.45;;;2.40;;
4353;SDS011;11018;51.258;6.806;2024-02-14T12:15:17;3.35;;;1.50;;
4353;SDS011;11018;51.258;6.806;2024-02-14T12:17:44;9.00;;;2.27;;
4353;SDS011;11018;51.258;6.806;2024-02-14T12:20:12;8.52;;;2.30;;
4353;SDS011;11018;51.258;6.806;2024-02-14T12:22:39;6.07;;;2.20;;
4353;SDS011;11018;51.258;6.806;2024-02-14T12:25:06;5.33;;;1.80;;
4353;SDS011;11018;51.258;6.806;2024-02-14T12:27:33;4.85;;;2.20;;
4353;SDS011;11018;51.258;6.806;2024-02-14T12:29:59;6.57;;;2.30;;
4353;SDS011;11018;51.258;6.806;2024-02-14T12:32:28;5.10;;;1.63;;
4353;SDS011;11018;51.258;6.806;2024-02-14T12:34:58;6.03;;;1.90;;
4353;SDS011;11018;51.258;6.806;2024-02-14T12:37:23;3.28;;;1.60;;
4353;SDS011;11018;51.258;6.806;2024-02-14T12:39:49;5.70;;;2.20;;
4353;SDS011;11018;51.258;6.806;2024-02-14T12:42:15;4.90;;;2.10;;
4353;SDS011;11018;51.258;6.806;2024-02-14T12:44:40;5.82;;;2.40;;
4353;SDS011;11018;51.258;6.806;2024-02-14T12:47:06;4.72;;;2.55;;
4353;SDS011;11018;51.258;6.806;2024-02-14T12:49:32;5.22;;;2.40;;
4353;SDS011;11018;51.258;6.806;2024-02-14T12:51:59;5.30;;;2.60;;
4353;SDS011;11018;51.258;6.806;2024-02-14T12:54:24;6.78;;;2.33;;
4353;SDS011;11018;51.258;6.806;2024-02-14T12:56:50;5.60;;;2.60;;
4353;SDS011;11018;51.258;6.806;2024-02-14T12:59:17;5.97;;;2.30;;
4353;SDS011;11018;51.258;6.806;2024-02-14T13:01:43;9.27;;;2.80;;
4353;SDS011;11018;51.258;6.806;2024-02-14T13:04:09;5.30;;;2.00;;
4353;SDS011;11018;51.258;6.806;2024-02-14T13:06:35;5.97;;;2.30;;
4353;SDS011;11018;51.258;6.806;2024-02-14T13:09:02;5.20;;;2.00;;
4353;SDS011;11018;51.258;6.806;2024-02-14T13:11:30;7.95;;;2.30;;
4353;SDS011;11018;51.258;6.806;2024-02-14T13:13:56;3.95;;;1.90;;
4353;SDS011;11018;51.258;6.806;2024-02-14T13:16:22;4.72;;;2.00;;
4353;SDS011;11018;51.258;6.806;2024-02-14T13:18:48;5.85;;;2.40;;
4353;SDS011;11018;51.258;6.806;2024-02-14T13:21:13;4.18;;;2.10;;
4353;SDS011;11018;51.258;6.806;2024-02-14T13:23:40;7.93;;;2.50;;
4353;SDS011;11018;51.258;6.806;2024-02-14T13:26:05;9.70;;;2.50;;
4353;SDS011;11018;51.258;6.806;2024-02-14T13:28:32;4.85;;;2.25;;
4353;SDS011;11018;51.258;6.806;2024-02-14T13:30:58;8.55;;;2.30;;
4353;SDS011;11018;51.258;6.806;2024-02-14T13:33:24;7.30;;;2.57;;
4353;SDS011;11018;51.258;6.806;2024-02-14T13:35:49;5.73;;;2.30;;
4353;SDS011;11018;51.258;6.806;2024-02-14T13:38:15;3.70;;;1.93;;
4353;SDS011;11018;51.258;6.806;2024-02-14T13:40:42;4.32;;;2.10;;
4353;SDS011;11018;51.258;6.806;2024-02-14T13:43:08;3.13;;;2.10;;
4353;SDS011;11018;51.258;6.806;2024-02-14T13:45:41;6.82;;;2.00;;
4353;SDS011;11018;51.258;6.806;2024-02-14T13:48:10;3.55;;;2.25;;
4353;SDS011;11018;51.258;6.806;2024-02-14T13:50:36;4.40;;;1.90;;
4353;SDS011;11018;51.258;6.806;2024-02-14T13:53:03;3.28;;;1.90;;
4353;SDS011;11018;51.258;6.806;2024-02-14T13:55:29;5.18;;;2.30;;
4353;SDS011;11018;51.258;6.806;2024-02-14T13:57:54;5.47;;;1.85;;
4353;SDS011;11018;51.258;6.806;2024-02-14T14:00:20;3.50;;;1.60;;
4353;SDS011;11018;51.258;6.806;2024-02-14T14:02:45;5.33;;;1.80;;
4353;SDS011;11018;51.258;6.806;2024-02-14T14:05:11;3.60;;;1.70;;
4353;SDS011;11018;51.258;6.806;2024-02-14T14:07:38;4.35;;;2.00;;
4353;SDS011;11018;51.258;6.806;2024-02-14T14:10:07;1.80;;;1.40;;
4353;SDS011;11018;51.258;6.806;2024-02-14T14:12:37;4.65;;;1.90;;
4353;SDS011;11018;51.258;6.806;2024-02-14T14:15:04;3.97;;;1.70;;
4353;SDS011;11018;51.258;6.806;2024-02-14T14:17:30;1.60;;;1.20;;
4353;SDS011;11018;51.258;6.806;2024-02-14T14:19:55;2.77;;;1.33;;
4353;SDS011;11018;51.258;6.806;2024-02-14T14:22:21;1.80;;;1.10;;
4353;SDS011;11018;51.258;6.806;2024-02-14T14:24:46;8.80;;;1.10;;
4353;SDS011;11018;51.258;6.806;2024-02-14T14:27:12;1.85;;;1.10;;
4353;SDS011;11018;51.258;6.806;2024-02-14T14:29:40;4.57;;;1.20;;
4353;SDS011;11018;51.258;6.806;2024-02-14T14:32:09;1.30;;;1.05;;
4353;SDS011;11018;51.258;6.806;2024-02-14T14:34:35;4.63;;;1.20;;
4353;SDS011;11018;51.258;6.806;2024-02-14T14:37:00;2.05;;;0.90;;
4353;SDS011;11018;51.258;6.806;2024-02-14T14:39:26;1.30;;;0.85;;
4353;SDS011;11018;51.258;6.806;2024-02-14T14:41:52;1.50;;;1.10;;
4353;SDS011;11018;51.258;6.806;2024-02-14T14:44:23;2.85;;;1.33;;
4353;SDS011;11018;51.258;6.806;2024-02-14T14:46:49;3.10;;;1.30;;
4353;SDS011;11018;51.258;6.806;2024-02-14T14:49:15;1.40;;;1.10;;
4353;SDS011;11018;51.258;6.806;2024-02-14T14:51:41;2.22;;;1.38;;
4353;SDS011;11018;51.258;6.806;2024-02-14T14:54:07;2.35;;;1.00;;
4353;SDS011;11018;51.258;6.806;2024-02-14T14:56:32;1.73;;;1.27;;